AAL3084 TKPK-KMIA
Flight info
| Callsign | AAL3084 |
|---|---|
| Flight time | N/A |
| Altitude | 38000 |
| Route | UDGEL1 GABAR Y280 ACONY Y308 MADIZ VIICE2 |
| Aircraft | A321/M-SDE3FGHIRWY/LB1 |
Departure
| Time | 2026-04-20 14:34 |
|---|---|
| Airport | Robert L. Bradshaw International Airport (TKPK) |
Arrival
| Time | N/A |
|---|---|
| Airport | Miami International Airport (KMIA) |
| Time | Latitude | Longitude | Altitude | Speed | Heading |
|---|---|---|---|---|---|
| 2026-04-20 14:14 | 17.31170 | -62.71476 | 183 ft | 0 kts | 186° |
| 2026-04-20 14:26 | 17.31178 | -62.71475 | 183 ft | 4 kts | 187° |
| 2026-04-20 14:26 | 17.31205 | -62.71471 | 183 ft | 4 kts | 193° |
| 2026-04-20 14:26 | 17.31230 | -62.71462 | 183 ft | 4 kts | 213° |
| 2026-04-20 14:27 | 17.31244 | -62.71449 | 183 ft | 1 kts | 236° |
| 2026-04-20 14:27 | 17.31246 | -62.71446 | 183 ft | 0 kts | 236° |
| 2026-04-20 14:28 | 17.31246 | -62.71447 | 183 ft | 0 kts | 236° |
| 2026-04-20 14:29 | 17.31234 | -62.71466 | 183 ft | 7 kts | 237° |
| 2026-04-20 14:30 | 17.31203 | -62.71516 | 183 ft | 9 kts | 237° |
| 2026-04-20 14:30 | 17.31164 | -62.71576 | 183 ft | 11 kts | 237° |
| 2026-04-20 14:30 | 17.31119 | -62.71648 | 183 ft | 13 kts | 237° |
| 2026-04-20 14:30 | 17.31073 | -62.71729 | 183 ft | 14 kts | 256° |
| 2026-04-20 14:31 | 17.31057 | -62.71833 | 183 ft | 15 kts | 262° |
| 2026-04-20 14:31 | 17.31041 | -62.71949 | 183 ft | 17 kts | 262° |
| 2026-04-20 14:31 | 17.30991 | -62.72068 | 183 ft | 19 kts | 236° |
| 2026-04-20 14:31 | 17.30915 | -62.72188 | 183 ft | 21 kts | 236° |
| 2026-04-20 14:32 | 17.30830 | -62.72319 | 183 ft | 23 kts | 236° |
| 2026-04-20 14:32 | 17.30742 | -62.72462 | 183 ft | 24 kts | 237° |
| 2026-04-20 14:32 | 17.30645 | -62.72614 | 183 ft | 25 kts | 236° |
| 2026-04-20 14:32 | 17.30547 | -62.72695 | 183 ft | 16 kts | 196° |
| 2026-04-20 14:33 | 17.30534 | -62.72755 | 183 ft | 6 kts | 345° |
| 2026-04-20 14:33 | 17.30566 | -62.72736 | 183 ft | 5 kts | 55° |
| 2026-04-20 14:33 | 17.30594 | -62.72692 | 183 ft | 15 kts | 56° |
| 2026-04-20 14:33 | 17.30774 | -62.72409 | 183 ft | 82 kts | 57° |
| 2026-04-20 14:34 | 17.31219 | -62.71710 | 183 ft | 147 kts | 57° |
| 2026-04-20 14:34 | 17.31870 | -62.70688 | 473 ft | 177 kts | 58° |
| 2026-04-20 14:34 | 17.32550 | -62.69615 | 1462 ft | 178 kts | 58° |
| 2026-04-20 14:34 | 17.33236 | -62.68522 | 2363 ft | 182 kts | 59° |
| 2026-04-20 14:35 | 17.33948 | -62.67379 | 2779 ft | 195 kts | 59° |
| 2026-04-20 14:35 | 17.34722 | -62.66120 | 3035 ft | 217 kts | 59° |
| 2026-04-20 14:35 | 17.35616 | -62.64706 | 3164 ft | 249 kts | 58° |
| 2026-04-20 14:35 | 17.36579 | -62.63200 | 4033 ft | 246 kts | 58° |
| 2026-04-20 14:36 | 17.37535 | -62.61686 | 4804 ft | 253 kts | 58° |
| 2026-04-20 14:36 | 17.38501 | -62.60171 | 5647 ft | 253 kts | 58° |
| 2026-04-20 14:36 | 17.39485 | -62.58620 | 6390 ft | 258 kts | 58° |
| 2026-04-20 14:36 | 17.40485 | -62.57040 | 7137 ft | 262 kts | 58° |
| 2026-04-20 14:37 | 17.41500 | -62.55434 | 7844 ft | 267 kts | 58° |
| 2026-04-20 14:37 | 17.42545 | -62.53810 | 8525 ft | 271 kts | 54° |
| 2026-04-20 14:37 | 17.43881 | -62.52392 | 9148 ft | 278 kts | 39° |
| 2026-04-20 14:37 | 17.45602 | -62.51441 | 9785 ft | 283 kts | 20° |
| 2026-04-20 14:38 | 17.47565 | -62.51119 | 10363 ft | 292 kts | 2° |
| 2026-04-20 14:38 | 17.49629 | -62.51530 | 10479 ft | 317 kts | 340° |
| 2026-04-20 14:38 | 17.51562 | -62.52798 | 10562 ft | 341 kts | 319° |
| 2026-04-20 14:38 | 17.53065 | -62.54807 | 10642 ft | 363 kts | 300° |
| 2026-04-20 14:39 | 17.53922 | -62.57359 | 10722 ft | 383 kts | 281° |
| 2026-04-20 14:39 | 17.53993 | -62.60210 | 10831 ft | 401 kts | 263° |
| 2026-04-20 14:39 | 17.53183 | -62.62999 | 11484 ft | 402 kts | 245° |
| 2026-04-20 14:39 | 17.51626 | -62.65437 | 12116 ft | 405 kts | 229° |
| 2026-04-20 14:40 | 17.49715 | -62.67612 | 12704 ft | 407 kts | 228° |
| 2026-04-20 14:40 | 17.48076 | -62.70024 | 13277 ft | 409 kts | 241° |
| 2026-04-20 14:40 | 17.46759 | -62.72670 | 13835 ft | 411 kts | 244° |
| 2026-04-20 14:40 | 17.45515 | -62.75371 | 14377 ft | 413 kts | 246° |
| 2026-04-20 14:41 | 17.44306 | -62.78116 | 14904 ft | 415 kts | 247° |
| 2026-04-20 14:41 | 17.43125 | -62.80885 | 15413 ft | 418 kts | 248° |
| 2026-04-20 14:41 | 17.41975 | -62.83642 | 15908 ft | 420 kts | 248° |
| 2026-04-20 14:41 | 17.40820 | -62.86459 | 16388 ft | 422 kts | 249° |
| 2026-04-20 14:42 | 17.39673 | -62.89298 | 16850 ft | 425 kts | 249° |
| 2026-04-20 14:42 | 17.38531 | -62.92151 | 17309 ft | 427 kts | 249° |
| 2026-04-20 14:42 | 17.37438 | -62.95046 | 17748 ft | 428 kts | 253° |
| 2026-04-20 14:42 | 17.36714 | -62.98069 | 18176 ft | 427 kts | 262° |
| 2026-04-20 14:43 | 17.36460 | -63.01164 | 18602 ft | 427 kts | 271° |
| 2026-04-20 14:43 | 17.36680 | -63.04264 | 18997 ft | 426 kts | 281° |
| 2026-04-20 14:43 | 17.37268 | -63.07302 | 19384 ft | 427 kts | 284° |
| 2026-04-20 14:43 | 17.37913 | -63.10349 | 19753 ft | 429 kts | 284° |
| 2026-04-20 14:44 | 17.38572 | -63.13407 | 20110 ft | 431 kts | 284° |
| 2026-04-20 14:44 | 17.39240 | -63.16464 | 20441 ft | 432 kts | 284° |
| 2026-04-20 14:44 | 17.39918 | -63.19543 | 20750 ft | 434 kts | 285° |
| 2026-04-20 14:44 | 17.40600 | -63.22624 | 21099 ft | 435 kts | 285° |
| 2026-04-20 14:45 | 17.41290 | -63.25720 | 21356 ft | 437 kts | 285° |
| 2026-04-20 14:45 | 17.41985 | -63.28823 | 21657 ft | 438 kts | 285° |
| 2026-04-20 14:45 | 17.42682 | -63.31930 | 21942 ft | 439 kts | 285° |
| 2026-04-20 14:45 | 17.43384 | -63.35049 | 22197 ft | 441 kts | 285° |
| 2026-04-20 14:46 | 17.44091 | -63.38189 | 22466 ft | 443 kts | 285° |
| 2026-04-20 14:46 | 17.44792 | -63.41297 | 22722 ft | 444 kts | 285° |
| 2026-04-20 14:46 | 17.45503 | -63.44442 | 22957 ft | 445 kts | 285° |
| 2026-04-20 14:46 | 17.46217 | -63.47603 | 23215 ft | 446 kts | 285° |
| 2026-04-20 14:47 | 17.46933 | -63.50769 | 23415 ft | 448 kts | 285° |
| 2026-04-20 14:47 | 17.47653 | -63.53953 | 23668 ft | 449 kts | 285° |
| 2026-04-20 14:47 | 17.48373 | -63.57138 | 23869 ft | 450 kts | 285° |
| 2026-04-20 14:48 | 17.49819 | -63.63535 | 24264 ft | 453 kts | 285° |
| 2026-04-20 14:48 | 17.50594 | -63.66739 | 24469 ft | 453 kts | 289° |
| 2026-04-20 14:48 | 17.51788 | -63.69781 | 24634 ft | 452 kts | 298° |
| 2026-04-20 14:48 | 17.53272 | -63.72687 | 24818 ft | 453 kts | 300° |
| 2026-04-20 14:49 | 17.54777 | -63.75589 | 24994 ft | 454 kts | 300° |
| 2026-04-20 14:49 | 17.56290 | -63.78496 | 25207 ft | 455 kts | 300° |
| 2026-04-20 14:49 | 17.57810 | -63.81412 | 25354 ft | 456 kts | 300° |
| 2026-04-20 14:49 | 17.59331 | -63.84325 | 25522 ft | 457 kts | 300° |
| 2026-04-20 14:50 | 17.60861 | -63.87253 | 25734 ft | 457 kts | 300° |
| 2026-04-20 14:50 | 17.62390 | -63.90175 | 25910 ft | 458 kts | 300° |
| 2026-04-20 14:50 | 17.63924 | -63.93106 | 26141 ft | 457 kts | 300° |
| 2026-04-20 14:50 | 17.65449 | -63.96017 | 26415 ft | 455 kts | 301° |
| 2026-04-20 14:51 | 17.66976 | -63.98930 | 26625 ft | 455 kts | 301° |
| 2026-04-20 14:51 | 17.68480 | -64.01799 | 26875 ft | 454 kts | 301° |
| 2026-04-20 14:51 | 17.69997 | -64.04692 | 27101 ft | 453 kts | 301° |
| 2026-04-20 14:51 | 17.71516 | -64.07587 | 27328 ft | 452 kts | 301° |
| 2026-04-20 14:52 | 17.73029 | -64.10470 | 27576 ft | 451 kts | 301° |
| 2026-04-20 14:52 | 17.74544 | -64.13357 | 27784 ft | 451 kts | 301° |
| 2026-04-20 14:52 | 17.76052 | -64.16232 | 28040 ft | 449 kts | 301° |
| 2026-04-20 14:52 | 17.77557 | -64.19099 | 28247 ft | 449 kts | 301° |
| 2026-04-20 14:53 | 17.79060 | -64.21966 | 28488 ft | 448 kts | 301° |
| 2026-04-20 14:53 | 17.80553 | -64.24832 | 28702 ft | 447 kts | 301° |
| 2026-04-20 14:53 | 17.82024 | -64.27709 | 28927 ft | 446 kts | 301° |
| 2026-04-20 14:53 | 17.83485 | -64.30576 | 29148 ft | 445 kts | 301° |
| 2026-04-20 14:54 | 17.84949 | -64.33445 | 29342 ft | 445 kts | 301° |
| 2026-04-20 14:54 | 17.86405 | -64.36300 | 29580 ft | 443 kts | 301° |
| 2026-04-20 14:54 | 17.87860 | -64.39149 | 29778 ft | 443 kts | 301° |
| 2026-04-20 14:54 | 17.89317 | -64.42004 | 29952 ft | 443 kts | 301° |
| 2026-04-20 14:55 | 17.90773 | -64.44856 | 30154 ft | 442 kts | 301° |
| 2026-04-20 14:55 | 17.92211 | -64.47672 | 30348 ft | 442 kts | 301° |
| 2026-04-20 14:55 | 17.93662 | -64.50513 | 30542 ft | 441 kts | 301° |
| 2026-04-20 14:55 | 17.95110 | -64.53350 | 30737 ft | 441 kts | 301° |
| 2026-04-20 14:56 | 17.96558 | -64.56187 | 30936 ft | 440 kts | 301° |
| 2026-04-20 14:56 | 17.98005 | -64.59022 | 31137 ft | 440 kts | 301° |
| 2026-04-20 14:56 | 17.99449 | -64.61851 | 31338 ft | 439 kts | 301° |
| 2026-04-20 14:56 | 18.00888 | -64.64671 | 31584 ft | 438 kts | 301° |
| 2026-04-20 14:57 | 18.02322 | -64.67486 | 31838 ft | 436 kts | 301° |
| 2026-04-20 14:57 | 18.03756 | -64.70299 | 32012 ft | 437 kts | 301° |
| 2026-04-20 14:57 | 18.05191 | -64.73117 | 32080 ft | 437 kts | 301° |
| 2026-04-20 14:58 | 18.08061 | -64.78750 | 32103 ft | 436 kts | 301° |
| 2026-04-20 14:58 | 18.10920 | -64.84369 | 32103 ft | 436 kts | 301° |
| 2026-04-20 14:59 | 18.13778 | -64.89989 | 32102 ft | 435 kts | 301° |
| 2026-04-20 14:59 | 18.16631 | -64.95604 | 32101 ft | 435 kts | 301° |
| 2026-04-20 15:00 | 18.19458 | -65.01201 | 32101 ft | 437 kts | 301° |
| 2026-04-20 15:00 | 18.22300 | -65.06840 | 32100 ft | 436 kts | 301° |
| 2026-04-20 15:01 | 18.25145 | -65.12479 | 32101 ft | 436 kts | 301° |
| 2026-04-20 15:01 | 18.27990 | -65.18116 | 32102 ft | 436 kts | 301° |
| 2026-04-20 15:02 | 18.30838 | -65.23756 | 32104 ft | 437 kts | 301° |
| 2026-04-20 15:02 | 18.33687 | -65.29402 | 32106 ft | 437 kts | 300° |
| 2026-04-20 15:03 | 18.36533 | -65.35052 | 32109 ft | 437 kts | 300° |
| 2026-04-20 15:03 | 18.39374 | -65.40707 | 32111 ft | 437 kts | 300° |
| 2026-04-20 15:04 | 18.42217 | -65.46365 | 32113 ft | 437 kts | 300° |
| 2026-04-20 15:04 | 18.45058 | -65.52018 | 32114 ft | 437 kts | 300° |
| 2026-04-20 15:05 | 18.47900 | -65.57675 | 32116 ft | 437 kts | 300° |
| 2026-04-20 15:05 | 18.50260 | -65.62375 | 32116 ft | 437 kts | 300° |
| 2026-04-20 15:06 | 18.53107 | -65.68045 | 32115 ft | 438 kts | 300° |
| 2026-04-20 15:06 | 18.56414 | -65.74639 | 32114 ft | 438 kts | 300° |
| 2026-04-20 15:07 | 18.58756 | -65.79314 | 32113 ft | 438 kts | 300° |
| 2026-04-20 15:07 | 18.61622 | -65.85036 | 32111 ft | 438 kts | 300° |
| 2026-04-20 15:08 | 18.64461 | -65.90710 | 32111 ft | 437 kts | 300° |
| 2026-04-20 15:08 | 18.67276 | -65.96342 | 32110 ft | 437 kts | 300° |
| 2026-04-20 15:09 | 18.70104 | -66.02002 | 32110 ft | 436 kts | 300° |
| 2026-04-20 15:09 | 18.72936 | -66.07677 | 32109 ft | 437 kts | 300° |
| 2026-04-20 15:10 | 18.75763 | -66.13347 | 32106 ft | 437 kts | 300° |
| 2026-04-20 15:10 | 18.78587 | -66.19017 | 32104 ft | 436 kts | 300° |
| 2026-04-20 15:11 | 18.81412 | -66.24694 | 32103 ft | 436 kts | 300° |
| 2026-04-20 15:11 | 18.84217 | -66.30336 | 32102 ft | 436 kts | 300° |
| 2026-04-20 15:12 | 18.87027 | -66.35995 | 32104 ft | 435 kts | 300° |
| 2026-04-20 15:12 | 18.89840 | -66.41665 | 32107 ft | 435 kts | 300° |
| 2026-04-20 15:13 | 18.92661 | -66.47321 | 32107 ft | 435 kts | 301° |
| 2026-04-20 15:13 | 18.95930 | -66.52683 | 32107 ft | 435 kts | 304° |
| 2026-04-20 15:14 | 18.99315 | -66.57982 | 32107 ft | 435 kts | 305° |
| 2026-04-20 15:14 | 19.02727 | -66.63264 | 32107 ft | 435 kts | 305° |
| 2026-04-20 15:15 | 19.06145 | -66.68543 | 32107 ft | 435 kts | 305° |
| 2026-04-20 15:15 | 19.09558 | -66.73812 | 32107 ft | 433 kts | 305° |
| 2026-04-20 15:16 | 19.12964 | -66.79073 | 32106 ft | 434 kts | 305° |